createdAt,value
2019-01-19T00:02:59.848Z,0.90
2019-01-19T00:06:28.222Z,0.70
2019-01-19T00:09:26.409Z,0.80
2019-01-19T00:12:37.925Z,0.90
2019-01-19T00:15:45.628Z,1.00
2019-01-19T00:19:36.717Z,1.00
2019-01-19T00:22:25.876Z,0.70
2019-01-19T00:25:40.693Z,0.80
2019-01-19T00:28:39.526Z,0.60
2019-01-19T00:31:19.590Z,0.60
2019-01-19T00:34:18.720Z,0.50
2019-01-19T00:37:20.963Z,0.60
2019-01-19T00:40:56.056Z,0.60
2019-01-19T00:44:07.276Z,0.60
2019-01-19T00:47:29.302Z,0.60
2019-01-19T00:50:48.485Z,0.50
2019-01-19T00:53:34.076Z,0.60
2019-01-19T00:56:39.521Z,0.70
2019-01-19T00:59:27.322Z,0.70
2019-01-19T01:02:33.115Z,0.70
2019-01-19T01:05:25.258Z,0.80
2019-01-19T01:08:31.311Z,0.70
2019-01-19T01:11:34.231Z,0.70
2019-01-19T01:14:58.969Z,0.60
2019-01-19T01:18:00.112Z,0.60
2019-01-19T01:21:24.635Z,0.60
2019-01-19T01:24:33.675Z,0.30
2019-01-19T01:27:30.309Z,0.40
2019-01-19T01:30:58.394Z,0.20
2019-01-19T01:34:29.927Z,0.20
2019-01-19T01:37:20.863Z,0.40
2019-01-19T01:41:06.904Z,0.50
2019-01-19T01:44:15.781Z,0.60
2019-01-19T01:47:37.213Z,0.70
2019-01-19T01:51:20.236Z,0.70
2019-01-19T01:54:51.126Z,0.80
2019-01-19T01:57:29.690Z,0.60
2019-01-19T02:00:43.558Z,0.50
2019-01-19T02:04:43.556Z,0.40
2019-01-19T02:08:19.042Z,0.30
2019-01-19T02:11:44.637Z,0.50
2019-01-19T02:14:55.523Z,0.50
2019-01-19T02:18:32.903Z,0.40
2019-01-19T02:22:02.223Z,0.50
2019-01-19T02:25:21.177Z,0.40
2019-01-19T02:28:52.700Z,0.30
2019-01-19T02:32:04.891Z,0.30
2019-01-19T02:35:33.230Z,0.40
2019-01-19T02:39:14.307Z,0.40
2019-01-19T02:42:50.486Z,0.40
2019-01-19T02:46:00.040Z,0.00
2019-01-19T02:49:30.277Z,0.10
2019-01-19T02:52:57.622Z,0.30
2019-01-19T02:56:00.402Z,0.20
2019-01-19T02:59:08.248Z,0.10
2019-01-19T03:02:39.545Z,0.00
2019-01-19T03:05:56.096Z,0.20
2019-01-19T03:09:31.023Z,0.30
2019-01-19T03:12:36.965Z,0.40
2019-01-19T03:15:36.692Z,0.40
2019-01-19T03:18:56.951Z,0.40
2019-01-19T03:22:10.632Z,0.50
2019-01-19T03:25:43.328Z,0.60
2019-01-19T03:28:28.901Z,0.40
2019-01-19T03:31:29.633Z,0.30
2019-01-19T03:34:53.385Z,0.40
2019-01-19T03:38:16.719Z,0.50
2019-01-19T03:41:50.291Z,0.50
2019-01-19T03:45:24.491Z,0.70
2019-01-19T03:48:59.874Z,0.80
2019-01-19T03:51:58.542Z,0.90
2019-01-19T03:55:11.265Z,0.70
2019-01-19T03:58:33.301Z,0.80
2019-01-19T04:02:03.217Z,0.80
2019-01-19T04:05:26.891Z,0.80
2019-01-19T04:08:42.885Z,0.80
2019-01-19T04:11:48.545Z,0.90
2019-01-19T04:15:17.430Z,0.90
2019-01-19T04:18:51.622Z,0.90
2019-01-19T04:21:56.586Z,1.00
2019-01-19T04:25:06.133Z,1.00
2019-01-19T04:27:34.899Z,1.00
2019-01-19T04:30:06.381Z,0.90
2019-01-19T04:32:36.486Z,0.70
2019-01-19T04:35:05.062Z,0.80
2019-01-19T04:37:33.445Z,0.90
2019-01-19T04:40:01.994Z,0.90
2019-01-19T04:42:30.893Z,1.00
2019-01-19T04:44:59.524Z,1.10
2019-01-19T04:47:28.473Z,1.20
2019-01-19T04:49:56.862Z,1.20
2019-01-19T04:52:25.393Z,1.10
2019-01-19T04:54:54.776Z,1.10
2019-01-19T04:57:23.271Z,1.10
2019-01-19T04:59:51.772Z,1.00
2019-01-19T05:02:20.186Z,1.00
2019-01-19T05:04:48.591Z,1.00
2019-01-19T05:07:17.153Z,1.00
2019-01-19T05:09:45.539Z,1.00
2019-01-19T05:12:14.128Z,1.00
2019-01-19T05:14:44.415Z,0.90
2019-01-19T05:17:13.107Z,1.00
2019-01-19T05:19:41.726Z,1.20
2019-01-19T05:22:10.403Z,1.30
2019-01-19T05:24:38.963Z,1.30
2019-01-19T05:27:07.362Z,1.30
2019-01-19T05:29:35.840Z,1.30
2019-01-19T05:32:06.870Z,1.30
2019-01-19T05:34:36.775Z,1.30
2019-01-19T05:37:05.458Z,1.40
2019-01-19T05:39:37.137Z,1.40
2019-01-19T05:42:05.529Z,1.50
2019-01-19T05:44:34.748Z,1.40
2019-01-19T05:47:04.915Z,1.40
2019-01-19T05:49:35.291Z,1.50
2019-01-19T05:52:04.338Z,1.50
2019-01-19T05:54:33.207Z,1.50
2019-01-19T05:57:02.952Z,1.50
2019-01-19T05:59:33.294Z,1.60
2019-01-19T06:02:04.502Z,1.50
2019-01-19T06:04:34.210Z,1.40
2019-01-19T06:07:05.857Z,1.30
2019-01-19T06:09:34.625Z,1.20
2019-01-19T06:12:03.210Z,1.30
2019-01-19T06:14:31.669Z,1.40
2019-01-19T06:17:00.956Z,1.40
2019-01-19T06:19:30.259Z,1.40
2019-01-19T06:22:00.126Z,1.50
2019-01-19T06:24:28.787Z,1.60
2019-01-19T06:26:57.664Z,1.60
2019-01-19T06:29:26.248Z,1.70
2019-01-19T06:31:55.321Z,1.60
2019-01-19T06:34:24.444Z,1.50
2019-01-19T06:36:57.355Z,1.50
2019-01-19T06:39:26.032Z,1.50
2019-01-19T06:41:57.457Z,1.60
2019-01-19T06:44:26.080Z,1.70
2019-01-19T06:46:55.318Z,1.70
2019-01-19T06:49:27.029Z,1.70
2019-01-19T06:52:01.615Z,1.80
2019-01-19T06:54:32.436Z,1.80
2019-01-19T06:57:01.142Z,1.90
2019-01-19T06:59:29.678Z,1.90
2019-01-19T07:01:58.473Z,1.90
2019-01-19T07:04:28.039Z,1.90
2019-01-19T07:07:02.516Z,2.00
2019-01-19T07:09:29.238Z,1.90
2019-01-19T07:11:58.126Z,1.80
2019-01-19T07:14:26.664Z,1.70
2019-01-19T07:16:55.025Z,1.60
2019-01-19T07:19:24.200Z,1.60
2019-01-19T07:21:52.764Z,1.80
2019-01-19T07:24:21.491Z,1.90
2019-01-19T07:26:49.953Z,2.00
2019-01-19T07:29:18.421Z,2.00
2019-01-19T07:31:46.884Z,1.80
2019-01-19T07:34:15.322Z,1.90
2019-01-19T07:36:45.475Z,1.90
2019-01-19T07:39:14.028Z,1.90
2019-01-19T07:41:42.791Z,2.00
2019-01-19T07:44:11.495Z,2.00
2019-01-19T07:46:41.156Z,2.00
2019-01-19T07:49:11.038Z,2.10
2019-01-19T07:51:39.516Z,1.90
2019-01-19T07:54:08.563Z,2.00
2019-01-19T07:56:37.145Z,2.00
2019-01-19T07:59:12.857Z,1.90
2019-01-19T08:01:41.492Z,1.80
2019-01-19T08:04:10.081Z,1.70
2019-01-19T08:06:38.461Z,1.70
2019-01-19T08:09:07.757Z,1.70
2019-01-19T08:11:36.257Z,1.70
2019-01-19T08:14:04.928Z,1.60
2019-01-19T08:16:34.211Z,1.70
2019-01-19T08:19:02.885Z,1.90
2019-01-19T08:21:31.256Z,1.90
2019-01-19T08:23:59.763Z,2.00
2019-01-19T08:26:28.120Z,2.00
2019-01-19T08:28:58.182Z,2.00
2019-01-19T08:31:26.847Z,2.00
2019-01-19T08:33:55.947Z,2.00
2019-01-19T08:36:24.537Z,2.20
2019-01-19T08:38:53.087Z,2.20
2019-01-19T08:41:21.654Z,2.20
2019-01-19T08:43:55.658Z,2.20
2019-01-19T08:46:24.734Z,2.30
2019-01-19T08:48:54.872Z,2.40
2019-01-19T08:51:23.371Z,2.20
2019-01-19T08:53:51.979Z,2.30
2019-01-19T08:56:22.152Z,2.30
2019-01-19T08:58:50.614Z,2.30
2019-01-19T09:01:19.080Z,2.20
2019-01-19T09:03:48.040Z,2.10
2019-01-19T09:06:16.507Z,2.10
2019-01-19T09:08:44.957Z,2.10
2019-01-19T09:11:13.736Z,2.10
2019-01-19T09:13:42.780Z,2.10
2019-01-19T09:16:20.220Z,2.20
2019-01-19T09:18:48.768Z,2.40
2019-01-19T09:21:17.327Z,2.50
2019-01-19T09:24:00.653Z,2.50
2019-01-19T09:26:29.516Z,2.40
2019-01-19T09:28:58.168Z,2.50
2019-01-19T09:31:28.171Z,2.40
2019-01-19T09:33:58.388Z,2.40
2019-01-19T09:36:27.062Z,2.30
2019-01-19T09:38:55.635Z,2.30
2019-01-19T09:41:23.993Z,2.30
2019-01-19T09:43:52.537Z,2.30
2019-01-19T09:46:20.892Z,2.40
2019-01-19T09:48:49.374Z,2.40
2019-01-19T09:51:19.031Z,2.50
2019-01-19T09:53:47.453Z,2.60
2019-01-19T09:56:15.954Z,2.60
2019-01-19T09:58:45.414Z,2.60
2019-01-19T10:01:14.367Z,2.60
2019-01-19T10:03:43.748Z,2.70
2019-01-19T10:06:12.500Z,2.80
2019-01-19T10:08:42.682Z,2.80
2019-01-19T10:11:11.815Z,2.90
2019-01-19T10:13:40.221Z,2.90
2019-01-19T10:16:08.786Z,2.80
2019-01-19T10:18:37.242Z,2.90
2019-01-19T10:21:05.792Z,2.90
2019-01-19T10:23:34.353Z,2.90
2019-01-19T10:26:02.802Z,2.90
2019-01-19T10:28:31.258Z,3.00
2019-01-19T10:30:59.816Z,3.00
2019-01-19T10:33:28.378Z,3.00
2019-01-19T10:35:56.831Z,3.10
2019-01-19T10:38:25.293Z,3.00
2019-01-19T10:40:54.342Z,3.00
2019-01-19T10:43:22.750Z,3.00
2019-01-19T10:45:52.902Z,3.00
2019-01-19T10:48:21.862Z,3.10
2019-01-19T10:50:50.408Z,3.10
2019-01-19T10:53:18.782Z,2.90
2019-01-19T10:55:47.132Z,3.00
2019-01-19T10:58:15.480Z,2.90
2019-01-19T11:00:43.843Z,2.80
2019-01-19T11:03:13.102Z,2.80
2019-01-19T11:05:41.568Z,2.90
2019-01-19T11:08:12.307Z,3.00
2019-01-19T11:10:40.768Z,3.10
2019-01-19T11:13:09.184Z,3.20
2019-01-19T11:15:37.749Z,3.10
2019-01-19T11:18:06.161Z,3.10
2019-01-19T11:20:34.624Z,3.10
2019-01-19T11:23:02.971Z,3.00
2019-01-19T11:25:31.442Z,3.00
2019-01-19T11:27:59.795Z,3.10
2019-01-19T11:30:30.118Z,3.20
2019-01-19T11:32:58.459Z,3.20
2019-01-19T11:35:26.938Z,3.10
2019-01-19T11:37:55.285Z,2.90
2019-01-19T11:40:27.484Z,2.80
2019-01-19T11:42:56.576Z,2.60
2019-01-19T11:45:26.051Z,2.70
2019-01-19T11:47:55.110Z,2.90
2019-01-19T11:50:23.691Z,3.00
2019-01-19T11:52:52.889Z,3.10
2019-01-19T11:55:21.751Z,3.00
2019-01-19T11:57:55.254Z,3.00
2019-01-19T12:00:30.950Z,2.40
2019-01-19T12:03:00.312Z,2.60
2019-01-19T12:05:32.101Z,2.80
2019-01-19T12:08:01.426Z,3.00
2019-01-19T12:10:30.619Z,2.90
2019-01-19T12:12:59.408Z,2.80
2019-01-19T12:15:28.568Z,3.00
2019-01-19T12:17:57.785Z,3.10
2019-01-19T12:20:39.435Z,3.00
2019-01-19T12:23:09.510Z,2.90
2019-01-19T12:25:40.122Z,3.00
2019-01-19T12:28:09.158Z,3.00
2019-01-19T12:30:39.355Z,3.10
2019-01-19T12:33:08.210Z,3.00
2019-01-19T12:35:37.071Z,3.10
2019-01-19T12:38:05.544Z,3.20
2019-01-19T12:40:34.997Z,3.20
2019-01-19T12:43:08.886Z,3.20
2019-01-19T12:45:42.326Z,3.20
2019-01-19T12:48:11.924Z,3.20
2019-01-19T12:50:40.708Z,3.10
2019-01-19T12:53:12.277Z,3.00
2019-01-19T12:55:41.186Z,2.90
2019-01-19T12:58:09.966Z,2.80
2019-01-19T13:00:40.169Z,2.80
2019-01-19T13:03:12.029Z,2.90
2019-01-19T13:06:00.017Z,2.90
2019-01-19T13:08:34.292Z,2.90
2019-01-19T13:11:26.319Z,2.70
2019-01-19T13:14:03.070Z,2.90
2019-01-19T13:17:26.611Z,2.90
2019-01-19T13:20:23.004Z,2.70
2019-01-19T13:24:07.406Z,2.70
2019-01-19T13:27:28.579Z,2.70
2019-01-19T13:30:47.222Z,2.60
2019-01-19T13:33:54.947Z,2.80
2019-01-19T13:37:00.011Z,2.60
2019-01-19T13:40:15.058Z,2.60
2019-01-19T13:43:44.853Z,2.80
2019-01-19T13:47:25.780Z,2.90
2019-01-19T13:50:28.428Z,3.00
2019-01-19T13:54:01.169Z,3.00
2019-01-19T13:57:33.059Z,3.10
2019-01-19T14:01:19.829Z,3.00
2019-01-19T14:04:59.348Z,3.20
2019-01-19T14:08:01.829Z,3.20
2019-01-19T14:11:17.234Z,2.90
2019-01-19T14:14:25.099Z,3.00
2019-01-19T14:17:43.241Z,3.00
2019-01-19T14:20:51.035Z,2.90
2019-01-19T14:24:23.225Z,3.00
2019-01-19T14:27:45.082Z,3.20
2019-01-19T14:31:38.812Z,2.80
2019-01-19T14:35:01.440Z,2.70
2019-01-19T14:38:36.388Z,2.90
2019-01-19T14:42:14.173Z,3.10
2019-01-19T14:45:49.702Z,3.20
2019-01-19T14:49:08.562Z,2.90
2019-01-19T14:52:16.930Z,3.00
2019-01-19T14:55:16.179Z,3.30
2019-01-19T14:59:21.487Z,3.30
2019-01-19T15:02:47.869Z,3.30
2019-01-19T15:06:01.005Z,2.90
2019-01-19T15:09:29.829Z,3.00
2019-01-19T15:13:02.236Z,3.10
2019-01-19T15:16:50.491Z,3.10
2019-01-19T15:20:37.143Z,3.20
2019-01-19T15:24:00.769Z,3.20
2019-01-19T15:27:30.037Z,2.90
2019-01-19T15:30:29.769Z,2.80
2019-01-19T15:33:35.938Z,2.90
2019-01-19T15:36:28.163Z,3.10
2019-01-19T15:39:57.468Z,3.00
2019-01-19T15:43:29.922Z,3.00
2019-01-19T15:46:48.313Z,3.00
2019-01-19T15:50:13.366Z,3.00
2019-01-19T15:53:49.187Z,3.00
2019-01-19T15:57:39.189Z,2.80
2019-01-19T16:00:53.677Z,2.80
2019-01-19T16:04:14.325Z,2.60
2019-01-19T16:07:50.130Z,2.90
2019-01-19T16:11:41.273Z,2.80
2019-01-19T16:15:12.750Z,2.90
2019-01-19T16:18:42.399Z,3.10
2019-01-19T16:22:31.686Z,3.10
2019-01-19T16:26:04.625Z,3.20
2019-01-19T16:29:11.042Z,3.10
2019-01-19T16:32:08.152Z,3.20
2019-01-19T16:35:55.262Z,3.10
2019-01-19T16:39:25.728Z,3.10
2019-01-19T16:42:33.057Z,3.00
2019-01-19T16:45:54.113Z,3.00
2019-01-19T16:48:41.033Z,3.10
2019-01-19T16:51:50.649Z,3.20
2019-01-19T16:55:05.628Z,3.30
2019-01-19T16:58:23.897Z,3.30
2019-01-19T17:02:11.981Z,3.30
2019-01-19T17:05:25.883Z,3.30
2019-01-19T17:08:39.286Z,3.40
2019-01-19T17:11:48.922Z,3.50
2019-01-19T17:15:00.397Z,3.50
2019-01-19T17:18:24.709Z,3.30
2019-01-19T17:22:02.047Z,3.20
2019-01-19T17:25:46.141Z,3.20
2019-01-19T17:29:09.604Z,3.30
2019-01-19T17:32:29.161Z,3.30
2019-01-19T17:36:08.669Z,3.20
2019-01-19T17:40:00.822Z,3.20
2019-01-19T17:42:59.328Z,3.30
2019-01-19T17:46:13.990Z,3.30
2019-01-19T17:49:26.586Z,3.20
2019-01-19T17:53:06.620Z,3.20
2019-01-19T17:56:24.442Z,3.20
2019-01-19T17:59:10.439Z,3.20
2019-01-19T18:02:49.371Z,3.20
2019-01-19T18:05:51.994Z,3.20
2019-01-19T18:09:19.469Z,3.10
2019-01-19T18:12:23.432Z,3.10
2019-01-19T18:16:04.670Z,3.20
2019-01-19T18:19:24.009Z,3.10
2019-01-19T18:23:14.921Z,3.00
2019-01-19T18:26:19.334Z,3.00
2019-01-19T18:29:12.732Z,3.00
2019-01-19T18:32:47.569Z,3.00
2019-01-19T18:36:47.418Z,3.00
2019-01-19T18:40:26.430Z,2.90
2019-01-19T18:44:01.811Z,2.90
2019-01-19T18:47:33.934Z,2.90
2019-01-19T18:51:22.103Z,3.00
2019-01-19T18:54:57.302Z,3.00
2019-01-19T18:58:29.364Z,2.90
2019-01-19T19:01:32.290Z,2.90
2019-01-19T19:05:16.622Z,2.90
2019-01-19T19:09:14.210Z,2.90
2019-01-19T19:12:03.295Z,3.00
2019-01-19T19:15:33.628Z,2.80
2019-01-19T19:19:05.429Z,2.80
2019-01-19T19:22:37.338Z,2.80
2019-01-19T19:26:05.385Z,2.90
2019-01-19T19:29:39.063Z,2.70
2019-01-19T19:32:59.242Z,2.80
2019-01-19T19:36:25.384Z,2.90
2019-01-19T19:39:36.454Z,3.00
2019-01-19T19:42:47.527Z,3.00
2019-01-19T19:46:27.574Z,3.10
2019-01-19T19:49:26.075Z,3.20
2019-01-19T19:52:02.508Z,3.10
2019-01-19T19:54:32.279Z,3.00
2019-01-19T19:57:00.852Z,3.10
2019-01-19T19:59:29.321Z,3.00
2019-01-19T20:01:57.921Z,3.00
2019-01-19T20:04:26.834Z,3.00
2019-01-19T20:06:56.421Z,3.10
2019-01-19T20:09:25.600Z,3.20
2019-01-19T20:11:59.138Z,3.10
2019-01-19T20:14:27.539Z,3.10
2019-01-19T20:16:55.932Z,3.20
2019-01-19T20:19:24.294Z,3.20
2019-01-19T20:21:54.186Z,3.10
2019-01-19T20:24:22.578Z,3.00
2019-01-19T20:26:50.968Z,3.10
2019-01-19T20:29:19.736Z,3.10
2019-01-19T20:31:48.993Z,3.20
2019-01-19T20:34:17.932Z,3.20
2019-01-19T20:36:47.913Z,3.10
2019-01-19T20:39:16.287Z,3.20
2019-01-19T20:41:44.778Z,3.10
2019-01-19T20:44:13.203Z,3.10
2019-01-19T20:46:41.685Z,3.10
2019-01-19T20:49:10.070Z,3.00
2019-01-19T20:51:38.442Z,3.10
2019-01-19T20:54:06.820Z,3.00
2019-01-19T20:56:35.202Z,3.00
2019-01-19T20:59:03.687Z,3.10
2019-01-19T21:01:32.636Z,2.90
2019-01-19T21:04:01.194Z,3.00
2019-01-19T21:06:29.564Z,3.00
2019-01-19T21:08:58.224Z,3.00
2019-01-19T21:11:26.599Z,3.00
2019-01-19T21:13:55.089Z,2.90
2019-01-19T21:16:23.483Z,2.90
2019-01-19T21:18:52.185Z,2.80
2019-01-19T21:21:20.761Z,2.80
2019-01-19T21:23:50.941Z,2.80
2019-01-19T21:26:19.357Z,2.90
2019-01-19T21:28:49.339Z,2.80
2019-01-19T21:31:17.736Z,2.70
2019-01-19T21:33:46.197Z,2.70
2019-01-19T21:36:14.685Z,2.50
2019-01-19T21:38:43.284Z,2.60
2019-01-19T21:41:11.692Z,2.70
2019-01-19T21:43:40.186Z,2.80
2019-01-19T21:46:08.558Z,2.70
2019-01-19T21:48:37.226Z,2.70
2019-01-19T21:51:05.752Z,2.70
2019-01-19T21:53:36.008Z,2.80
2019-01-19T21:56:04.487Z,2.80
2019-01-19T21:58:34.669Z,2.80
2019-01-19T22:01:03.237Z,2.70
2019-01-19T22:03:31.813Z,2.70
2019-01-19T22:06:00.360Z,2.50
2019-01-19T22:08:28.750Z,2.60
2019-01-19T22:10:58.110Z,2.70
2019-01-19T22:13:26.549Z,2.90
2019-01-19T22:15:55.020Z,2.90
2019-01-19T22:18:23.602Z,2.90
2019-01-19T22:20:52.161Z,2.90
2019-01-19T22:23:20.636Z,2.90
2019-01-19T22:25:48.990Z,2.90
2019-01-19T22:28:17.361Z,3.00
2019-01-19T22:30:45.727Z,3.00
2019-01-19T22:33:14.655Z,2.90
2019-01-19T22:35:43.522Z,2.80
2019-01-19T22:38:11.888Z,2.80
2019-01-19T22:40:40.257Z,2.90
2019-01-19T22:43:12.581Z,3.00
2019-01-19T22:45:40.964Z,3.00
2019-01-19T22:48:09.441Z,2.90
2019-01-19T22:50:37.908Z,2.90
2019-01-19T22:53:06.880Z,3.00
2019-01-19T22:55:37.041Z,2.90
2019-01-19T22:58:05.445Z,2.90
2019-01-19T23:01:27.703Z,3.00
2019-01-19T23:03:56.186Z,3.00
2019-01-19T23:06:24.647Z,3.00
2019-01-19T23:08:53.028Z,3.00
2019-01-19T23:11:22.401Z,3.00
2019-01-19T23:13:51.126Z,2.90
2019-01-19T23:16:19.596Z,3.00
2019-01-19T23:18:48.065Z,3.00
2019-01-19T23:21:16.427Z,2.90
2019-01-19T23:23:45.268Z,3.00
2019-01-19T23:26:15.042Z,3.00
2019-01-19T23:28:43.512Z,3.00
2019-01-19T23:31:11.997Z,2.90
2019-01-19T23:33:42.203Z,3.00
2019-01-19T23:36:12.387Z,3.10
2019-01-19T23:38:40.754Z,3.10
2019-01-19T23:41:09.454Z,3.20
2019-01-19T23:43:37.905Z,3.10
2019-01-19T23:46:06.377Z,3.10
2019-01-19T23:48:35.335Z,3.10
2019-01-19T23:51:05.512Z,3.10
2019-01-19T23:53:33.941Z,3.10
2019-01-19T23:56:02.424Z,3.10
2019-01-19T23:58:30.789Z,3.00
